createdAt,value
2022-08-07T00:00:59.901Z,2.00
2022-08-07T00:04:15.426Z,2.03
2022-08-07T00:07:18.776Z,1.90
2022-08-07T00:10:25.943Z,2.37
2022-08-07T00:13:29.350Z,1.93
2022-08-07T00:16:31.315Z,2.10
2022-08-07T00:20:01.649Z,1.80
2022-08-07T00:22:55.018Z,1.90
2022-08-07T00:26:00.445Z,2.07
2022-08-07T00:29:04.646Z,1.90
2022-08-07T00:32:07.903Z,1.70
2022-08-07T00:35:09.920Z,1.77
2022-08-07T00:38:11.605Z,1.97
2022-08-07T00:41:15.294Z,1.90
2022-08-07T00:44:17.151Z,2.03
2022-08-07T00:48:07.839Z,1.60
2022-08-07T00:50:50.397Z,1.70
2022-08-07T00:53:55.265Z,2.10
2022-08-07T00:56:57.902Z,2.03
2022-08-07T00:59:59.730Z,1.97
2022-08-07T01:03:01.388Z,2.20
2022-08-07T01:06:03.429Z,1.80
2022-08-07T01:09:05.147Z,2.07
2022-08-07T01:12:29.082Z,2.07
2022-08-07T01:16:00.563Z,2.20
2022-08-07T01:18:56.137Z,2.00
2022-08-07T01:21:59.140Z,1.80
2022-08-07T01:25:05.126Z,1.90
2022-08-07T01:28:24.200Z,2.07
2022-08-07T01:31:42.589Z,1.77
2022-08-07T01:34:49.144Z,1.93
2022-08-07T01:37:51.548Z,2.47
2022-08-07T01:40:57.812Z,1.97
2022-08-07T01:43:59.532Z,1.90
2022-08-07T01:48:16.915Z,1.60
2022-08-07T01:50:29.178Z,1.77
2022-08-07T01:54:08.924Z,2.10
2022-08-07T01:57:24.450Z,1.43
2022-08-07T02:00:29.284Z,1.90
2022-08-07T02:03:42.746Z,1.70
2022-08-07T02:06:56.145Z,1.70
2022-08-07T02:09:59.418Z,2.20
2022-08-07T02:13:04.449Z,1.80
2022-08-07T02:16:11.891Z,1.90
2022-08-07T02:20:05.586Z,1.60
2022-08-07T02:22:41.221Z,1.60
2022-08-07T02:26:26.623Z,1.80
2022-08-07T02:29:13.544Z,1.70
2022-08-07T02:32:16.652Z,1.80
2022-08-07T02:36:29.723Z,1.87
2022-08-07T02:38:50.856Z,1.80
2022-08-07T02:41:58.763Z,1.83
2022-08-07T02:45:07.320Z,1.70
2022-08-07T02:48:26.281Z,1.70
2022-08-07T02:51:42.563Z,1.57
2022-08-07T02:54:53.652Z,1.80
2022-08-07T02:58:04.044Z,1.60
2022-08-07T03:01:06.401Z,1.63
2022-08-07T03:04:19.025Z,1.80
2022-08-07T03:07:21.541Z,1.80
2022-08-07T03:10:46.674Z,1.60
2022-08-07T03:13:50.222Z,1.70
2022-08-07T03:16:59.891Z,1.67
2022-08-07T03:20:07.494Z,1.50
2022-08-07T03:23:19.187Z,1.60
2022-08-07T03:26:24.647Z,1.70
2022-08-07T03:29:49.617Z,1.70
2022-08-07T03:32:58.249Z,1.70
2022-08-07T03:36:00.509Z,1.77
2022-08-07T03:39:13.897Z,1.43
2022-08-07T03:42:19.975Z,1.73
2022-08-07T03:45:30.599Z,1.90
2022-08-07T03:48:35.124Z,1.80
2022-08-07T03:52:01.091Z,1.73
2022-08-07T03:55:07.018Z,1.47
2022-08-07T03:59:06.866Z,1.80
2022-08-07T04:01:33.924Z,1.90
2022-08-07T04:04:41.658Z,2.00
2022-08-07T04:07:48.457Z,1.63
2022-08-07T04:10:53.912Z,1.80
2022-08-07T04:14:10.607Z,1.80
2022-08-07T04:17:23.841Z,1.97
2022-08-07T04:20:54.631Z,2.00
2022-08-07T04:24:03.506Z,1.70
2022-08-07T04:27:20.341Z,1.90
2022-08-07T04:30:39.249Z,2.03
2022-08-07T04:33:46.025Z,1.87
2022-08-07T04:36:48.781Z,2.20
2022-08-07T04:39:51.243Z,1.73
2022-08-07T04:42:53.450Z,1.93
2022-08-07T04:46:25.842Z,2.00
2022-08-07T04:49:57.416Z,2.10
2022-08-07T04:53:07.923Z,2.20
2022-08-07T04:58:16.095Z,1.90
2022-08-07T05:00:18.886Z,2.10
2022-08-07T05:04:00.152Z,2.30
2022-08-07T05:07:09.510Z,2.33
2022-08-07T05:10:45.321Z,2.10
2022-08-07T05:14:53.040Z,2.10
2022-08-07T05:17:52.577Z,1.90
2022-08-07T05:20:49.383Z,2.00
2022-08-07T05:24:05.870Z,2.00
2022-08-07T05:27:14.525Z,1.97
2022-08-07T05:30:34.140Z,1.70
2022-08-07T05:33:40.986Z,2.07
2022-08-07T05:37:05.731Z,2.30
2022-08-07T05:40:18.889Z,2.03
2022-08-07T05:43:49.867Z,2.10
2022-08-07T05:46:44.127Z,2.03
2022-08-07T05:49:49.488Z,1.90
2022-08-07T05:52:51.542Z,1.90
2022-08-07T05:56:02.962Z,2.60
2022-08-07T05:59:09.988Z,2.33
2022-08-07T06:02:20.103Z,2.17
2022-08-07T06:05:31.335Z,2.10
2022-08-07T06:08:36.911Z,2.30
2022-08-07T06:11:44.248Z,2.07
2022-08-07T06:14:49.310Z,2.13
2022-08-07T06:17:55.031Z,2.30
2022-08-07T06:22:11.539Z,2.00
2022-08-07T06:24:37.657Z,2.20
2022-08-07T06:27:59.798Z,2.00
2022-08-07T06:31:03.790Z,2.20
2022-08-07T06:34:07.371Z,2.10
2022-08-07T06:37:11.274Z,2.27
2022-08-07T06:40:21.308Z,2.30
2022-08-07T06:43:26.772Z,2.37
2022-08-07T06:46:35.437Z,2.40
2022-08-07T06:49:50.668Z,2.23
2022-08-07T06:52:57.105Z,2.30
2022-08-07T06:56:01.106Z,2.10
2022-08-07T07:00:14.269Z,1.83
2022-08-07T07:02:48.524Z,2.20
2022-08-07T07:06:05.475Z,2.00
2022-08-07T07:09:25.293Z,2.17
2022-08-07T07:12:54.247Z,2.23
2022-08-07T07:16:03.003Z,2.17
2022-08-07T07:19:54.775Z,1.80
2022-08-07T07:22:33.900Z,2.20
2022-08-07T07:26:33.290Z,2.20
2022-08-07T07:29:38.560Z,2.30
2022-08-07T07:32:38.829Z,2.30
2022-08-07T07:36:04.141Z,2.40
2022-08-07T07:39:09.460Z,2.20
2022-08-07T07:42:13.988Z,2.10
2022-08-07T07:46:35.555Z,2.13
2022-08-07T07:48:48.193Z,2.37
2022-08-07T07:51:58.010Z,2.00
2022-08-07T07:55:03.384Z,2.20
2022-08-07T07:58:05.831Z,2.30
2022-08-07T08:02:03.022Z,2.40
2022-08-07T08:04:33.480Z,2.73
2022-08-07T08:07:42.505Z,2.50
2022-08-07T08:11:04.509Z,2.40
2022-08-07T08:14:06.619Z,2.60
2022-08-07T08:18:36.531Z,2.60
2022-08-07T08:20:36.572Z,2.30
2022-08-07T08:23:56.996Z,2.20
2022-08-07T08:27:09.366Z,2.43
2022-08-07T08:30:14.405Z,2.83
2022-08-07T08:33:24.229Z,2.83
2022-08-07T08:36:32.752Z,2.80
2022-08-07T08:39:39.679Z,2.67
2022-08-07T08:43:19.860Z,2.77
2022-08-07T08:46:45.062Z,2.77
2022-08-07T08:50:04.726Z,2.70
2022-08-07T08:53:29.433Z,2.20
2022-08-07T08:56:36.729Z,2.50
2022-08-07T08:59:57.250Z,3.10
2022-08-07T09:03:03.830Z,2.70
2022-08-07T09:06:17.954Z,3.20
2022-08-07T09:09:43.581Z,2.67
2022-08-07T09:13:03.407Z,2.93
2022-08-07T09:16:35.874Z,2.47
2022-08-07T09:19:55.412Z,3.00
2022-08-07T09:24:33.579Z,3.00
2022-08-07T09:27:11.981Z,3.10
2022-08-07T09:30:15.439Z,3.33
2022-08-07T09:34:15.003Z,3.20
2022-08-07T09:37:53.771Z,3.43
2022-08-07T09:41:14.628Z,2.83
2022-08-07T09:45:03.507Z,2.83
2022-08-07T09:48:30.184Z,2.70
2022-08-07T09:52:16.044Z,2.83
2022-08-07T09:56:04.181Z,2.90
2022-08-07T09:59:44.319Z,2.93
2022-08-07T10:04:06.373Z,2.60
2022-08-07T10:07:25.620Z,3.13
2022-08-07T10:11:16.931Z,3.00
2022-08-07T10:14:30.389Z,2.97
2022-08-07T10:18:10.719Z,2.90
2022-08-07T10:22:12.516Z,2.80
2022-08-07T10:24:56.232Z,3.00
2022-08-07T10:28:14.507Z,3.10
2022-08-07T10:31:38.781Z,3.40
2022-08-07T10:35:09.143Z,3.60
2022-08-07T10:38:47.887Z,2.80
2022-08-07T10:42:09.868Z,2.67
2022-08-07T10:45:44.888Z,2.77
2022-08-07T10:49:03.107Z,2.77
2022-08-07T10:52:14.778Z,3.00
2022-08-07T10:55:38.525Z,3.10
2022-08-07T10:59:21.288Z,2.83
2022-08-07T11:02:34.960Z,3.00
2022-08-07T11:05:50.858Z,2.60
2022-08-07T11:09:04.290Z,2.90
2022-08-07T11:12:32.045Z,2.70
2022-08-07T11:15:39.725Z,2.70
2022-08-07T11:19:21.789Z,2.80
2022-08-07T11:23:02.648Z,2.87
2022-08-07T11:26:14.039Z,2.77
2022-08-07T11:30:18.515Z,2.87
2022-08-07T11:33:59.634Z,2.70
2022-08-07T11:37:11.626Z,2.67
2022-08-07T11:40:22.685Z,3.20
2022-08-07T11:43:54.360Z,2.80
2022-08-07T11:47:38.676Z,2.60
2022-08-07T11:51:09.679Z,2.80
2022-08-07T11:54:41.915Z,2.50
2022-08-07T11:58:01.899Z,2.90
2022-08-07T12:01:25.786Z,2.50
2022-08-07T12:05:28.941Z,2.77
2022-08-07T12:09:09.180Z,2.40
2022-08-07T12:12:36.993Z,2.87
2022-08-07T12:16:05.663Z,2.90
2022-08-07T12:19:22.005Z,2.90
2022-08-07T12:22:55.920Z,2.50
2022-08-07T12:26:22.811Z,2.60
2022-08-07T12:29:38.317Z,2.53
2022-08-07T12:33:01.921Z,3.97
2022-08-07T12:36:33.619Z,2.80
2022-08-07T12:39:43.733Z,2.80
2022-08-07T12:42:55.126Z,2.40
2022-08-07T12:46:16.052Z,2.50
2022-08-07T12:49:52.924Z,2.80
2022-08-07T12:53:17.849Z,3.00
2022-08-07T12:56:30.949Z,2.70
2022-08-07T12:59:54.868Z,2.73
2022-08-07T13:03:01.291Z,2.70
2022-08-07T13:06:27.254Z,2.60
2022-08-07T13:10:21.532Z,2.80
2022-08-07T13:13:48.409Z,2.90
2022-08-07T13:17:04.696Z,2.90
2022-08-07T13:20:15.197Z,2.77
2022-08-07T13:24:01.797Z,2.70
2022-08-07T13:27:11.000Z,3.13
2022-08-07T13:30:19.379Z,2.40
2022-08-07T13:34:31.779Z,3.03
2022-08-07T13:37:33.448Z,3.37
2022-08-07T13:40:47.273Z,3.17
2022-08-07T13:43:56.088Z,3.00
2022-08-07T13:47:00.979Z,2.83
2022-08-07T13:50:34.720Z,3.30
2022-08-07T13:53:59.390Z,2.57
2022-08-07T13:56:59.843Z,2.73
2022-08-07T14:00:04.050Z,2.60
2022-08-07T14:03:06.460Z,2.70
2022-08-07T14:06:10.275Z,2.80
2022-08-07T14:10:12.386Z,2.60
2022-08-07T14:12:55.669Z,2.87
2022-08-07T14:16:06.348Z,2.70
2022-08-07T14:20:42.516Z,2.60
2022-08-07T14:23:05.823Z,2.70
2022-08-07T14:26:30.130Z,2.90
2022-08-07T14:30:06.432Z,2.40
2022-08-07T14:33:07.227Z,2.47
2022-08-07T14:36:10.543Z,2.63
2022-08-07T14:40:18.105Z,2.60
2022-08-07T14:43:01.218Z,2.70
2022-08-07T14:46:04.342Z,2.30
2022-08-07T14:52:33.925Z,2.77
2022-08-07T14:55:55.672Z,2.50
2022-08-07T14:59:14.041Z,2.63
2022-08-07T15:05:54.341Z,2.70
2022-08-07T15:12:36.794Z,2.70
2022-08-07T15:15:52.518Z,2.30
2022-08-07T15:19:00.628Z,2.93
2022-08-07T15:22:05.745Z,2.40
2022-08-07T15:25:36.436Z,2.63
2022-08-07T15:32:07.578Z,2.60
2022-08-07T15:36:00.295Z,2.50
2022-08-07T15:38:51.268Z,2.60
2022-08-07T15:42:46.181Z,2.60
2022-08-07T15:45:24.940Z,2.90
2022-08-07T15:49:04.043Z,2.63
2022-08-07T15:52:13.897Z,2.70
2022-08-07T15:55:19.925Z,2.70
2022-08-07T15:58:52.100Z,2.60
2022-08-07T16:02:01.765Z,2.67
2022-08-07T16:05:15.459Z,3.20
2022-08-07T16:08:30.668Z,2.80
2022-08-07T16:12:04.718Z,2.63
2022-08-07T16:15:55.209Z,2.73
2022-08-07T16:19:41.928Z,2.87
2022-08-07T16:23:53.143Z,2.63
2022-08-07T16:26:58.780Z,2.40
2022-08-07T16:30:29.436Z,2.83
2022-08-07T16:34:02.196Z,2.93
2022-08-07T16:38:04.633Z,2.87
2022-08-07T16:41:22.356Z,3.40
2022-08-07T16:44:57.253Z,2.80
2022-08-07T16:48:58.384Z,2.60
2022-08-07T16:52:51.371Z,2.60
2022-08-07T16:55:50.340Z,2.90
2022-08-07T16:59:46.675Z,2.80
2022-08-07T17:03:17.202Z,3.03
2022-08-07T17:07:02.981Z,2.97
2022-08-07T17:10:33.284Z,3.13
2022-08-07T17:14:17.802Z,2.72
2022-08-07T17:17:47.512Z,2.55
2022-08-07T17:20:53.973Z,2.70
2022-08-07T17:24:33.447Z,2.55
2022-08-07T17:27:51.130Z,2.92
2022-08-07T17:31:16.167Z,2.73
2022-08-07T17:35:32.922Z,3.00
2022-08-07T17:38:33.621Z,2.90
2022-08-07T17:42:02.700Z,2.75
2022-08-07T17:45:25.185Z,2.58
2022-08-07T17:48:34.205Z,2.75
2022-08-07T17:52:00.005Z,2.40
2022-08-07T17:56:00.224Z,2.67
2022-08-07T17:58:50.245Z,2.60
2022-08-07T18:02:01.230Z,2.50
2022-08-07T18:05:21.256Z,2.90
2022-08-07T18:09:01.490Z,2.87
2022-08-07T18:12:28.463Z,2.90
2022-08-07T18:15:43.099Z,2.67
2022-08-07T18:21:11.510Z,2.60
2022-08-07T18:22:40.100Z,2.70
2022-08-07T18:25:48.161Z,2.50
2022-08-07T18:30:06.641Z,2.90
2022-08-07T18:32:54.976Z,2.90
2022-08-07T18:36:39.677Z,2.33
2022-08-07T18:40:38.838Z,2.40
2022-08-07T18:43:57.719Z,2.70
2022-08-07T18:47:26.025Z,2.60
2022-08-07T18:52:33.710Z,2.80
2022-08-07T18:58:52.052Z,2.83
2022-08-07T19:02:42.414Z,2.97
2022-08-07T19:06:03.251Z,3.10
2022-08-07T19:09:55.857Z,2.70
2022-08-07T19:13:21.830Z,2.40
2022-08-07T19:17:04.423Z,2.70
2022-08-07T19:20:28.785Z,2.60
2022-08-07T19:23:57.918Z,3.00
2022-08-07T19:28:56.737Z,2.70
2022-08-07T19:31:04.084Z,2.63
2022-08-07T19:33:58.389Z,2.43
2022-08-07T19:37:10.027Z,2.37
2022-08-07T19:40:31.754Z,2.40
2022-08-07T19:43:51.924Z,2.30
2022-08-07T19:47:08.591Z,2.33
2022-08-07T19:50:44.117Z,2.43
2022-08-07T19:54:33.549Z,2.53
2022-08-07T19:58:02.037Z,2.53
2022-08-07T20:00:28.144Z,2.53
2022-08-07T20:03:35.487Z,2.90
2022-08-07T20:06:43.006Z,3.30
2022-08-07T20:10:35.616Z,3.10
2022-08-07T20:13:23.890Z,2.30
2022-08-07T20:16:36.406Z,2.30
2022-08-07T20:19:48.149Z,2.50
2022-08-07T20:23:22.853Z,2.50
2022-08-07T20:26:38.577Z,2.60
2022-08-07T20:29:59.379Z,3.07
2022-08-07T20:33:05.395Z,3.27
2022-08-07T20:36:13.266Z,2.50
2022-08-07T20:40:01.362Z,2.50
2022-08-07T20:42:56.095Z,3.30
2022-08-07T20:46:28.565Z,2.73
2022-08-07T20:50:00.114Z,2.87
2022-08-07T20:52:51.395Z,2.33
2022-08-07T20:55:57.591Z,2.40
2022-08-07T20:59:06.093Z,2.67
2022-08-07T21:02:53.983Z,2.60
2022-08-07T21:06:21.452Z,2.70
2022-08-07T21:09:51.520Z,2.80
2022-08-07T21:12:58.629Z,2.30
2022-08-07T21:16:07.493Z,2.50
2022-08-07T21:19:13.989Z,2.60
2022-08-07T21:22:19.289Z,2.60
2022-08-07T21:25:38.781Z,2.53
2022-08-07T21:28:51.760Z,2.20
2022-08-07T21:32:47.265Z,2.77
2022-08-07T21:36:04.010Z,2.60
2022-08-07T21:39:47.529Z,2.63
2022-08-07T21:43:04.467Z,3.80
2022-08-07T21:46:25.211Z,2.50
2022-08-07T21:50:02.694Z,2.50
2022-08-07T21:53:26.952Z,2.80
2022-08-07T21:56:50.631Z,2.60
2022-08-07T22:00:06.234Z,2.50
2022-08-07T22:03:30.632Z,2.40
2022-08-07T22:06:45.171Z,2.57
2022-08-07T22:09:54.206Z,2.47
2022-08-07T22:13:03.197Z,2.60
2022-08-07T22:16:44.519Z,2.77
2022-08-07T22:20:23.300Z,2.60
2022-08-07T22:23:44.947Z,2.50
2022-08-07T22:26:56.319Z,2.50
2022-08-07T22:30:12.354Z,2.40
2022-08-07T22:33:15.106Z,2.07
2022-08-07T22:36:29.197Z,2.23
2022-08-07T22:39:52.672Z,2.50
2022-08-07T22:43:07.334Z,2.40
2022-08-07T22:47:04.440Z,2.57
2022-08-07T22:50:33.318Z,2.17
2022-08-07T22:54:09.367Z,3.17
2022-08-07T22:57:40.912Z,2.50
2022-08-07T23:01:07.002Z,2.20
2022-08-07T23:04:20.676Z,2.10
2022-08-07T23:07:51.604Z,2.50
2022-08-07T23:11:21.343Z,2.50
2022-08-07T23:14:37.792Z,2.90
2022-08-07T23:17:56.214Z,2.53
2022-08-07T23:21:16.458Z,2.70
2022-08-07T23:24:28.919Z,2.30
2022-08-07T23:28:22.686Z,3.13
2022-08-07T23:34:20.124Z,2.90
2022-08-07T23:35:16.731Z,2.63
2022-08-07T23:38:36.799Z,2.40
2022-08-07T23:42:21.560Z,2.40
2022-08-07T23:46:01.973Z,2.27
2022-08-07T23:49:15.355Z,2.20
2022-08-07T23:52:58.835Z,2.20
2022-08-07T23:56:27.039Z,2.40
